sensor_id;sensor_type;location;lat;lon;timestamp;P1;durP1;ratioP1;P2;durP2;ratioP2
77322;SDS011;66384;51.052;9.850;2023-02-18T00:02:02;6.00;;;4.40;;
77322;SDS011;66384;51.052;9.850;2023-02-18T00:07:01;6.20;;;4.50;;
77322;SDS011;66384;51.052;9.850;2023-02-18T00:09:30;8.40;;;6.20;;
77322;SDS011;66384;51.052;9.850;2023-02-18T00:11:59;7.50;;;5.30;;
77322;SDS011;66384;51.052;9.850;2023-02-18T00:14:29;7.50;;;6.10;;
77322;SDS011;66384;51.052;9.850;2023-02-18T00:16:58;8.00;;;5.30;;
77322;SDS011;66384;51.052;9.850;2023-02-18T00:19:27;7.40;;;5.50;;
77322;SDS011;66384;51.052;9.850;2023-02-18T00:21:57;8.80;;;5.60;;
77322;SDS011;66384;51.052;9.850;2023-02-18T00:24:26;8.20;;;5.30;;
77322;SDS011;66384;51.052;9.850;2023-02-18T00:26:55;8.30;;;6.00;;
77322;SDS011;66384;51.052;9.850;2023-02-18T00:29:24;7.10;;;5.10;;
77322;SDS011;66384;51.052;9.850;2023-02-18T00:31:54;7.70;;;5.10;;
77322;SDS011;66384;51.052;9.850;2023-02-18T00:34:23;7.90;;;5.70;;
77322;SDS011;66384;51.052;9.850;2023-02-18T00:36:52;7.00;;;4.40;;
77322;SDS011;66384;51.052;9.850;2023-02-18T00:39:22;8.50;;;5.10;;
77322;SDS011;66384;51.052;9.850;2023-02-18T00:41:51;7.20;;;4.80;;
77322;SDS011;66384;51.052;9.850;2023-02-18T00:44:20;7.00;;;5.20;;
77322;SDS011;66384;51.052;9.850;2023-02-18T00:46:50;8.90;;;5.20;;
77322;SDS011;66384;51.052;9.850;2023-02-18T00:49:19;9.10;;;5.60;;
77322;SDS011;66384;51.052;9.850;2023-02-18T00:51:48;7.70;;;5.60;;
77322;SDS011;66384;51.052;9.850;2023-02-18T00:54:18;6.90;;;4.80;;
77322;SDS011;66384;51.052;9.850;2023-02-18T00:56:47;7.20;;;5.10;;
77322;SDS011;66384;51.052;9.850;2023-02-18T00:59:16;7.60;;;5.50;;
77322;SDS011;66384;51.052;9.850;2023-02-18T01:01:45;7.60;;;5.00;;
77322;SDS011;66384;51.052;9.850;2023-02-18T01:04:15;7.60;;;5.50;;
77322;SDS011;66384;51.052;9.850;2023-02-18T01:06:44;8.40;;;5.40;;
77322;SDS011;66384;51.052;9.850;2023-02-18T01:09:13;7.20;;;4.80;;
77322;SDS011;66384;51.052;9.850;2023-02-18T01:11:43;7.80;;;5.10;;
77322;SDS011;66384;51.052;9.850;2023-02-18T01:14:12;7.10;;;5.20;;
77322;SDS011;66384;51.052;9.850;2023-02-18T01:16:41;6.30;;;4.40;;
77322;SDS011;66384;51.052;9.850;2023-02-18T01:19:11;5.20;;;4.00;;
77322;SDS011;66384;51.052;9.850;2023-02-18T01:21:40;6.80;;;5.10;;
77322;SDS011;66384;51.052;9.850;2023-02-18T01:24:09;6.20;;;4.60;;
77322;SDS011;66384;51.052;9.850;2023-02-18T01:26:38;7.90;;;4.80;;
77322;SDS011;66384;51.052;9.850;2023-02-18T01:29:08;6.30;;;4.70;;
77322;SDS011;66384;51.052;9.850;2023-02-18T01:31:37;5.80;;;4.20;;
77322;SDS011;66384;51.052;9.850;2023-02-18T01:34:06;7.00;;;5.30;;
77322;SDS011;66384;51.052;9.850;2023-02-18T01:39:05;6.00;;;4.40;;
77322;SDS011;66384;51.052;9.850;2023-02-18T01:41:34;5.50;;;3.80;;
77322;SDS011;66384;51.052;9.850;2023-02-18T01:44:14;7.00;;;4.20;;
77322;SDS011;66384;51.052;9.850;2023-02-18T01:46:46;7.80;;;5.20;;
77322;SDS011;66384;51.052;9.850;2023-02-18T01:49:16;6.90;;;5.50;;
77322;SDS011;66384;51.052;9.850;2023-02-18T01:51:50;6.50;;;4.50;;
77322;SDS011;66384;51.052;9.850;2023-02-18T01:54:24;8.00;;;5.30;;
77322;SDS011;66384;51.052;9.850;2023-02-18T01:56:58;7.40;;;4.90;;
77322;SDS011;66384;51.052;9.850;2023-02-18T01:59:30;5.60;;;4.10;;
77322;SDS011;66384;51.052;9.850;2023-02-18T02:02:10;7.60;;;4.50;;
77322;SDS011;66384;51.052;9.850;2023-02-18T02:04:43;6.70;;;4.50;;
77322;SDS011;66384;51.052;9.850;2023-02-18T02:07:12;7.70;;;4.50;;
77322;SDS011;66384;51.052;9.850;2023-02-18T02:09:44;8.10;;;5.40;;
77322;SDS011;66384;51.052;9.850;2023-02-18T02:12:27;4.50;;;3.20;;
77322;SDS011;66384;51.052;9.850;2023-02-18T02:15:13;5.30;;;3.10;;
77322;SDS011;66384;51.052;9.850;2023-02-18T02:17:57;5.70;;;4.40;;
77322;SDS011;66384;51.052;9.850;2023-02-18T02:23:43;5.50;;;3.70;;
77322;SDS011;66384;51.052;9.850;2023-02-18T02:26:43;5.80;;;4.00;;
77322;SDS011;66384;51.052;9.850;2023-02-18T02:32:41;5.80;;;3.90;;
77322;SDS011;66384;51.052;9.850;2023-02-18T02:35:26;6.80;;;4.60;;
77322;SDS011;66384;51.052;9.850;2023-02-18T02:38:00;7.30;;;4.90;;
77322;SDS011;66384;51.052;9.850;2023-02-18T02:40:35;8.40;;;4.50;;
77322;SDS011;66384;51.052;9.850;2023-02-18T02:43:10;6.10;;;4.80;;
77322;SDS011;66384;51.052;9.850;2023-02-18T02:45:47;6.30;;;4.40;;
77322;SDS011;66384;51.052;9.850;2023-02-18T02:48:24;7.90;;;4.60;;
77322;SDS011;66384;51.052;9.850;2023-02-18T02:51:04;6.00;;;4.50;;
77322;SDS011;66384;51.052;9.850;2023-02-18T02:53:39;4.90;;;3.50;;
77322;SDS011;66384;51.052;9.850;2023-02-18T02:56:11;5.80;;;4.00;;
77322;SDS011;66384;51.052;9.850;2023-02-18T02:58:42;6.60;;;4.80;;
77322;SDS011;66384;51.052;9.850;2023-02-18T03:01:21;5.40;;;3.40;;
77322;SDS011;66384;51.052;9.850;2023-02-18T03:07:03;6.80;;;4.00;;
77322;SDS011;66384;51.052;9.850;2023-02-18T03:09:46;4.90;;;3.60;;
77322;SDS011;66384;51.052;9.850;2023-02-18T03:12:29;4.50;;;3.00;;
77322;SDS011;66384;51.052;9.850;2023-02-18T03:15:06;5.20;;;3.60;;
77322;SDS011;66384;51.052;9.850;2023-02-18T03:17:47;5.90;;;3.90;;
77322;SDS011;66384;51.052;9.850;2023-02-18T03:20:27;7.50;;;4.50;;
77322;SDS011;66384;51.052;9.850;2023-02-18T03:23:02;5.30;;;3.80;;
77322;SDS011;66384;51.052;9.850;2023-02-18T03:25:35;6.00;;;3.90;;
77322;SDS011;66384;51.052;9.850;2023-02-18T03:28:07;6.30;;;3.20;;
77322;SDS011;66384;51.052;9.850;2023-02-18T03:30:40;6.10;;;4.00;;
77322;SDS011;66384;51.052;9.850;2023-02-18T03:33:13;5.60;;;3.70;;
77322;SDS011;66384;51.052;9.850;2023-02-18T03:35:44;5.20;;;3.70;;
77322;SDS011;66384;51.052;9.850;2023-02-18T03:38:17;5.40;;;3.80;;
77322;SDS011;66384;51.052;9.850;2023-02-18T03:40:50;4.70;;;3.40;;
77322;SDS011;66384;51.052;9.850;2023-02-18T03:43:20;4.90;;;3.40;;
77322;SDS011;66384;51.052;9.850;2023-02-18T03:45:49;4.50;;;3.30;;
77322;SDS011;66384;51.052;9.850;2023-02-18T03:48:19;4.50;;;3.40;;
77322;SDS011;66384;51.052;9.850;2023-02-18T03:50:48;4.20;;;3.30;;
77322;SDS011;66384;51.052;9.850;2023-02-18T03:53:17;5.80;;;3.60;;
77322;SDS011;66384;51.052;9.850;2023-02-18T03:55:47;5.30;;;3.30;;
77322;SDS011;66384;51.052;9.850;2023-02-18T03:58:16;5.30;;;3.40;;
77322;SDS011;66384;51.052;9.850;2023-02-18T04:00:45;4.40;;;3.50;;
77322;SDS011;66384;51.052;9.850;2023-02-18T04:03:15;6.00;;;3.20;;
77322;SDS011;66384;51.052;9.850;2023-02-18T04:05:44;7.60;;;3.70;;
77322;SDS011;66384;51.052;9.850;2023-02-18T04:08:13;4.50;;;3.20;;
77322;SDS011;66384;51.052;9.850;2023-02-18T04:10:42;4.50;;;2.70;;
77322;SDS011;66384;51.052;9.850;2023-02-18T04:13:12;5.00;;;3.50;;
77322;SDS011;66384;51.052;9.850;2023-02-18T04:18:11;5.00;;;3.30;;
77322;SDS011;66384;51.052;9.850;2023-02-18T04:20:40;5.00;;;4.10;;
77322;SDS011;66384;51.052;9.850;2023-02-18T04:23:09;4.90;;;2.80;;
77322;SDS011;66384;51.052;9.850;2023-02-18T04:25:39;4.40;;;3.00;;
77322;SDS011;66384;51.052;9.850;2023-02-18T04:28:08;4.50;;;3.30;;
77322;SDS011;66384;51.052;9.850;2023-02-18T04:30:39;5.00;;;2.70;;
77322;SDS011;66384;51.052;9.850;2023-02-18T04:33:09;4.00;;;2.80;;
77322;SDS011;66384;51.052;9.850;2023-02-18T04:35:39;4.40;;;2.90;;
77322;SDS011;66384;51.052;9.850;2023-02-18T04:38:08;3.80;;;2.80;;
77322;SDS011;66384;51.052;9.850;2023-02-18T04:40:38;4.60;;;2.90;;
77322;SDS011;66384;51.052;9.850;2023-02-18T04:43:07;4.80;;;3.20;;
77322;SDS011;66384;51.052;9.850;2023-02-18T04:45:37;4.80;;;4.00;;
77322;SDS011;66384;51.052;9.850;2023-02-18T04:48:06;4.30;;;3.10;;
77322;SDS011;66384;51.052;9.850;2023-02-18T04:50:35;3.80;;;2.50;;
77322;SDS011;66384;51.052;9.850;2023-02-18T04:53:05;4.50;;;3.00;;
77322;SDS011;66384;51.052;9.850;2023-02-18T04:55:34;3.80;;;3.00;;
77322;SDS011;66384;51.052;9.850;2023-02-18T04:58:03;4.00;;;2.80;;
77322;SDS011;66384;51.052;9.850;2023-02-18T05:00:33;6.10;;;3.00;;
77322;SDS011;66384;51.052;9.850;2023-02-18T05:03:02;4.00;;;2.90;;
77322;SDS011;66384;51.052;9.850;2023-02-18T05:05:31;4.30;;;2.60;;
77322;SDS011;66384;51.052;9.850;2023-02-18T05:08:01;3.90;;;2.40;;
77322;SDS011;66384;51.052;9.850;2023-02-18T05:10:31;5.30;;;2.60;;
77322;SDS011;66384;51.052;9.850;2023-02-18T05:13:00;3.10;;;2.00;;
77322;SDS011;66384;51.052;9.850;2023-02-18T05:15:30;2.90;;;2.10;;
77322;SDS011;66384;51.052;9.850;2023-02-18T05:17:59;3.00;;;2.10;;
77322;SDS011;66384;51.052;9.850;2023-02-18T05:20:29;3.50;;;2.50;;
77322;SDS011;66384;51.052;9.850;2023-02-18T05:22:59;3.70;;;2.10;;
77322;SDS011;66384;51.052;9.850;2023-02-18T05:25:28;2.60;;;1.80;;
77322;SDS011;66384;51.052;9.850;2023-02-18T05:27:57;2.90;;;1.80;;
77322;SDS011;66384;51.052;9.850;2023-02-18T05:30:26;2.80;;;1.80;;
77322;SDS011;66384;51.052;9.850;2023-02-18T05:32:56;4.60;;;2.10;;
77322;SDS011;66384;51.052;9.850;2023-02-18T05:35:25;3.00;;;1.60;;
77322;SDS011;66384;51.052;9.850;2023-02-18T05:37:55;3.10;;;1.90;;
77322;SDS011;66384;51.052;9.850;2023-02-18T05:40:24;2.20;;;1.40;;
77322;SDS011;66384;51.052;9.850;2023-02-18T05:42:53;2.00;;;1.20;;
77322;SDS011;66384;51.052;9.850;2023-02-18T05:45:22;1.80;;;1.20;;
77322;SDS011;66384;51.052;9.850;2023-02-18T05:47:52;2.10;;;1.40;;
77322;SDS011;66384;51.052;9.850;2023-02-18T05:50:21;1.60;;;1.30;;
77322;SDS011;66384;51.052;9.850;2023-02-18T05:52:51;1.40;;;0.90;;
77322;SDS011;66384;51.052;9.850;2023-02-18T05:55:20;2.00;;;1.30;;
77322;SDS011;66384;51.052;9.850;2023-02-18T05:57:49;1.40;;;1.10;;
77322;SDS011;66384;51.052;9.850;2023-02-18T06:00:19;2.40;;;1.30;;
77322;SDS011;66384;51.052;9.850;2023-02-18T06:02:49;2.00;;;0.90;;
77322;SDS011;66384;51.052;9.850;2023-02-18T06:05:18;1.00;;;0.80;;
77322;SDS011;66384;51.052;9.850;2023-02-18T06:07:47;1.00;;;0.80;;
77322;SDS011;66384;51.052;9.850;2023-02-18T06:10:17;1.50;;;1.10;;
77322;SDS011;66384;51.052;9.850;2023-02-18T06:12:46;1.40;;;0.80;;
77322;SDS011;66384;51.052;9.850;2023-02-18T06:15:15;1.50;;;1.20;;
77322;SDS011;66384;51.052;9.850;2023-02-18T06:17:45;1.20;;;0.90;;
77322;SDS011;66384;51.052;9.850;2023-02-18T06:20:14;6.00;;;3.80;;
77322;SDS011;66384;51.052;9.850;2023-02-18T06:22:44;5.20;;;3.00;;
77322;SDS011;66384;51.052;9.850;2023-02-18T06:25:13;2.90;;;2.20;;
77322;SDS011;66384;51.052;9.850;2023-02-18T06:27:42;4.70;;;1.50;;
77322;SDS011;66384;51.052;9.850;2023-02-18T06:30:12;1.10;;;0.90;;
77322;SDS011;66384;51.052;9.850;2023-02-18T06:32:41;1.40;;;1.00;;
77322;SDS011;66384;51.052;9.850;2023-02-18T06:35:11;2.10;;;1.40;;
77322;SDS011;66384;51.052;9.850;2023-02-18T06:37:40;2.70;;;1.00;;
77322;SDS011;66384;51.052;9.850;2023-02-18T06:40:10;1.20;;;1.10;;
77322;SDS011;66384;51.052;9.850;2023-02-18T06:42:40;0.80;;;0.80;;
77322;SDS011;66384;51.052;9.850;2023-02-18T06:45:09;1.10;;;0.90;;
77322;SDS011;66384;51.052;9.850;2023-02-18T06:47:39;1.00;;;0.80;;
77322;SDS011;66384;51.052;9.850;2023-02-18T06:50:08;2.20;;;1.30;;
77322;SDS011;66384;51.052;9.850;2023-02-18T06:52:38;0.90;;;0.70;;
77322;SDS011;66384;51.052;9.850;2023-02-18T06:55:08;3.80;;;1.70;;
77322;SDS011;66384;51.052;9.850;2023-02-18T06:57:37;2.00;;;1.30;;
77322;SDS011;66384;51.052;9.850;2023-02-18T07:00:07;1.30;;;1.10;;
77322;SDS011;66384;51.052;9.850;2023-02-18T07:05:05;1.00;;;0.90;;
77322;SDS011;66384;51.052;9.850;2023-02-18T07:07:35;1.30;;;0.70;;
77322;SDS011;66384;51.052;9.850;2023-02-18T07:10:05;0.40;;;0.30;;
77322;SDS011;66384;51.052;9.850;2023-02-18T07:12:36;0.90;;;0.80;;
77322;SDS011;66384;51.052;9.850;2023-02-18T07:15:05;0.60;;;0.60;;
77322;SDS011;66384;51.052;9.850;2023-02-18T07:17:36;0.60;;;0.40;;
77322;SDS011;66384;51.052;9.850;2023-02-18T07:20:06;1.00;;;0.70;;
77322;SDS011;66384;51.052;9.850;2023-02-18T07:22:36;0.80;;;0.70;;
77322;SDS011;66384;51.052;9.850;2023-02-18T07:25:08;1.20;;;0.60;;
77322;SDS011;66384;51.052;9.850;2023-02-18T07:27:37;1.00;;;0.90;;
77322;SDS011;66384;51.052;9.850;2023-02-18T07:30:08;0.70;;;0.70;;
77322;SDS011;66384;51.052;9.850;2023-02-18T07:32:37;0.30;;;0.30;;
77322;SDS011;66384;51.052;9.850;2023-02-18T07:35:07;0.70;;;0.50;;
77322;SDS011;66384;51.052;9.850;2023-02-18T07:37:39;0.60;;;0.50;;
77322;SDS011;66384;51.052;9.850;2023-02-18T07:42:39;0.40;;;0.40;;
77322;SDS011;66384;51.052;9.850;2023-02-18T07:45:10;1.90;;;0.40;;
77322;SDS011;66384;51.052;9.850;2023-02-18T07:47:40;0.50;;;0.40;;
77322;SDS011;66384;51.052;9.850;2023-02-18T07:50:11;1.00;;;0.50;;
77322;SDS011;66384;51.052;9.850;2023-02-18T07:52:40;1.50;;;0.70;;
77322;SDS011;66384;51.052;9.850;2023-02-18T07:55:10;2.00;;;1.50;;
77322;SDS011;66384;51.052;9.850;2023-02-18T07:57:39;1.30;;;0.80;;
77322;SDS011;66384;51.052;9.850;2023-02-18T08:00:22;0.50;;;0.50;;
77322;SDS011;66384;51.052;9.850;2023-02-18T08:02:51;0.50;;;0.50;;
77322;SDS011;66384;51.052;9.850;2023-02-18T08:05:21;0.60;;;0.60;;
77322;SDS011;66384;51.052;9.850;2023-02-18T08:07:50;0.30;;;0.30;;
77322;SDS011;66384;51.052;9.850;2023-02-18T08:10:20;0.20;;;0.20;;
77322;SDS011;66384;51.052;9.850;2023-02-18T08:12:50;0.20;;;0.20;;
77322;SDS011;66384;51.052;9.850;2023-02-18T08:15:19;0.30;;;0.30;;
77322;SDS011;66384;51.052;9.850;2023-02-18T08:17:48;0.20;;;0.20;;
77322;SDS011;66384;51.052;9.850;2023-02-18T08:20:18;0.40;;;0.40;;
77322;SDS011;66384;51.052;9.850;2023-02-18T08:22:48;0.20;;;0.20;;
77322;SDS011;66384;51.052;9.850;2023-02-18T08:25:17;0.10;;;0.10;;
77322;SDS011;66384;51.052;9.850;2023-02-18T08:27:47;0.20;;;0.20;;
77322;SDS011;66384;51.052;9.850;2023-02-18T08:30:16;0.40;;;0.20;;
77322;SDS011;66384;51.052;9.850;2023-02-18T08:32:45;0.20;;;0.20;;
77322;SDS011;66384;51.052;9.850;2023-02-18T08:35:15;1.10;;;0.30;;
77322;SDS011;66384;51.052;9.850;2023-02-18T08:37:44;0.20;;;0.20;;
77322;SDS011;66384;51.052;9.850;2023-02-18T08:40:14;0.40;;;0.40;;
77322;SDS011;66384;51.052;9.850;2023-02-18T08:42:43;0.20;;;0.20;;
77322;SDS011;66384;51.052;9.850;2023-02-18T08:45:12;0.50;;;0.40;;
77322;SDS011;66384;51.052;9.850;2023-02-18T08:47:42;0.30;;;0.30;;
77322;SDS011;66384;51.052;9.850;2023-02-18T08:50:11;0.90;;;0.30;;
77322;SDS011;66384;51.052;9.850;2023-02-18T08:52:41;0.20;;;0.20;;
77322;SDS011;66384;51.052;9.850;2023-02-18T08:55:10;0.20;;;0.20;;
77322;SDS011;66384;51.052;9.850;2023-02-18T08:57:40;0.30;;;0.30;;
77322;SDS011;66384;51.052;9.850;2023-02-18T09:00:10;0.20;;;0.20;;
77322;SDS011;66384;51.052;9.850;2023-02-18T09:02:41;0.20;;;0.20;;
77322;SDS011;66384;51.052;9.850;2023-02-18T09:05:11;0.40;;;0.40;;
77322;SDS011;66384;51.052;9.850;2023-02-18T09:07:41;0.20;;;0.20;;
77322;SDS011;66384;51.052;9.850;2023-02-18T09:10:10;0.40;;;0.40;;
77322;SDS011;66384;51.052;9.850;2023-02-18T09:12:40;0.30;;;0.30;;
77322;SDS011;66384;51.052;9.850;2023-02-18T09:15:09;0.40;;;0.40;;
77322;SDS011;66384;51.052;9.850;2023-02-18T09:17:39;0.50;;;0.50;;
77322;SDS011;66384;51.052;9.850;2023-02-18T09:20:08;0.50;;;0.40;;
77322;SDS011;66384;51.052;9.850;2023-02-18T09:22:38;0.30;;;0.30;;
77322;SDS011;66384;51.052;9.850;2023-02-18T09:25:08;0.50;;;0.50;;
77322;SDS011;66384;51.052;9.850;2023-02-18T09:27:38;0.60;;;0.60;;
77322;SDS011;66384;51.052;9.850;2023-02-18T09:30:07;0.40;;;0.30;;
77322;SDS011;66384;51.052;9.850;2023-02-18T09:32:37;1.80;;;1.30;;
77322;SDS011;66384;51.052;9.850;2023-02-18T09:35:07;1.10;;;0.90;;
77322;SDS011;66384;51.052;9.850;2023-02-18T09:37:37;0.80;;;0.80;;
77322;SDS011;66384;51.052;9.850;2023-02-18T09:40:09;0.70;;;0.70;;
77322;SDS011;66384;51.052;9.850;2023-02-18T09:42:50;1.50;;;1.20;;
77322;SDS011;66384;51.052;9.850;2023-02-18T09:45:21;3.80;;;1.70;;
77322;SDS011;66384;51.052;9.850;2023-02-18T09:47:51;2.60;;;1.00;;
77322;SDS011;66384;51.052;9.850;2023-02-18T09:50:22;1.10;;;1.00;;
77322;SDS011;66384;51.052;9.850;2023-02-18T09:52:53;0.70;;;0.70;;
77322;SDS011;66384;51.052;9.850;2023-02-18T09:55:26;0.70;;;0.70;;
77322;SDS011;66384;51.052;9.850;2023-02-18T09:57:58;0.60;;;0.60;;
77322;SDS011;66384;51.052;9.850;2023-02-18T10:00:31;0.10;;;0.10;;
77322;SDS011;66384;51.052;9.850;2023-02-18T10:03:04;0.50;;;0.50;;
77322;SDS011;66384;51.052;9.850;2023-02-18T10:05:40;0.50;;;0.30;;
77322;SDS011;66384;51.052;9.850;2023-02-18T10:08:18;0.50;;;0.50;;
77322;SDS011;66384;51.052;9.850;2023-02-18T10:10:50;0.30;;;0.30;;
77322;SDS011;66384;51.052;9.850;2023-02-18T10:13:21;0.90;;;0.70;;
77322;SDS011;66384;51.052;9.850;2023-02-18T10:15:51;0.80;;;0.80;;
77322;SDS011;66384;51.052;9.850;2023-02-18T10:18:28;0.40;;;0.40;;
77322;SDS011;66384;51.052;9.850;2023-02-18T10:21:02;1.00;;;0.70;;
77322;SDS011;66384;51.052;9.850;2023-02-18T10:23:35;0.80;;;0.70;;
77322;SDS011;66384;51.052;9.850;2023-02-18T10:26:07;0.20;;;0.20;;
77322;SDS011;66384;51.052;9.850;2023-02-18T10:28:41;1.40;;;0.50;;
77322;SDS011;66384;51.052;9.850;2023-02-18T10:31:12;0.40;;;0.40;;
77322;SDS011;66384;51.052;9.850;2023-02-18T10:33:46;0.50;;;0.40;;
77322;SDS011;66384;51.052;9.850;2023-02-18T10:36:24;0.20;;;0.20;;
77322;SDS011;66384;51.052;9.850;2023-02-18T10:39:04;0.30;;;0.30;;
77322;SDS011;66384;51.052;9.850;2023-02-18T10:41:44;1.20;;;0.70;;
77322;SDS011;66384;51.052;9.850;2023-02-18T10:44:23;0.50;;;0.50;;
77322;SDS011;66384;51.052;9.850;2023-02-18T10:47:08;0.70;;;0.70;;
77322;SDS011;66384;51.052;9.850;2023-02-18T10:52:40;1.20;;;0.70;;
77322;SDS011;66384;51.052;9.850;2023-02-18T10:55:12;0.70;;;0.70;;
77322;SDS011;66384;51.052;9.850;2023-02-18T10:57:50;1.20;;;0.50;;
77322;SDS011;66384;51.052;9.850;2023-02-18T11:00:23;0.40;;;0.40;;
77322;SDS011;66384;51.052;9.850;2023-02-18T11:03:14;0.30;;;0.30;;
77322;SDS011;66384;51.052;9.850;2023-02-18T11:05:46;1.30;;;0.40;;
77322;SDS011;66384;51.052;9.850;2023-02-18T11:08:18;0.40;;;0.40;;
77322;SDS011;66384;51.052;9.850;2023-02-18T11:10:50;0.80;;;0.70;;
77322;SDS011;66384;51.052;9.850;2023-02-18T11:13:24;0.90;;;0.60;;
77322;SDS011;66384;51.052;9.850;2023-02-18T11:15:56;1.10;;;0.90;;
77322;SDS011;66384;51.052;9.850;2023-02-18T11:18:29;1.10;;;1.00;;
77322;SDS011;66384;51.052;9.850;2023-02-18T11:21:04;0.80;;;0.70;;
77322;SDS011;66384;51.052;9.850;2023-02-18T11:23:47;1.00;;;0.60;;
77322;SDS011;66384;51.052;9.850;2023-02-18T11:26:19;1.70;;;0.70;;
77322;SDS011;66384;51.052;9.850;2023-02-18T11:28:55;2.20;;;1.20;;
77322;SDS011;66384;51.052;9.850;2023-02-18T11:31:31;1.80;;;1.20;;
77322;SDS011;66384;51.052;9.850;2023-02-18T11:34:10;2.50;;;1.00;;
77322;SDS011;66384;51.052;9.850;2023-02-18T11:36:45;2.80;;;1.20;;
77322;SDS011;66384;51.052;9.850;2023-02-18T11:39:18;1.10;;;0.90;;
77322;SDS011;66384;51.052;9.850;2023-02-18T11:41:53;0.90;;;0.80;;
77322;SDS011;66384;51.052;9.850;2023-02-18T11:44:25;1.40;;;0.90;;
77322;SDS011;66384;51.052;9.850;2023-02-18T11:47:01;2.00;;;1.20;;
77322;SDS011;66384;51.052;9.850;2023-02-18T11:49:32;1.90;;;0.90;;
77322;SDS011;66384;51.052;9.850;2023-02-18T11:52:13;1.20;;;0.90;;
77322;SDS011;66384;51.052;9.850;2023-02-18T11:54:47;2.20;;;1.50;;
77322;SDS011;66384;51.052;9.850;2023-02-18T11:57:28;0.80;;;0.70;;
77322;SDS011;66384;51.052;9.850;2023-02-18T11:59:57;1.00;;;0.80;;
77322;SDS011;66384;51.052;9.850;2023-02-18T12:02:30;1.30;;;1.10;;
77322;SDS011;66384;51.052;9.850;2023-02-18T12:05:04;4.00;;;1.00;;
77322;SDS011;66384;51.052;9.850;2023-02-18T12:07:40;1.10;;;0.90;;
77322;SDS011;66384;51.052;9.850;2023-02-18T12:10:13;1.10;;;0.90;;
77322;SDS011;66384;51.052;9.850;2023-02-18T12:12:46;1.30;;;1.00;;
77322;SDS011;66384;51.052;9.850;2023-02-18T12:15:21;1.70;;;1.10;;
77322;SDS011;66384;51.052;9.850;2023-02-18T12:18:00;3.20;;;1.70;;
77322;SDS011;66384;51.052;9.850;2023-02-18T12:20:59;1.60;;;1.20;;
77322;SDS011;66384;51.052;9.850;2023-02-18T12:23:46;2.20;;;1.00;;
77322;SDS011;66384;51.052;9.850;2023-02-18T12:26:23;3.00;;;1.20;;
77322;SDS011;66384;51.052;9.850;2023-02-18T12:29:00;1.20;;;1.00;;
77322;SDS011;66384;51.052;9.850;2023-02-18T12:31:50;1.20;;;0.90;;
77322;SDS011;66384;51.052;9.850;2023-02-18T12:34:36;3.10;;;1.50;;
77322;SDS011;66384;51.052;9.850;2023-02-18T12:37:19;7.10;;;2.20;;
77322;SDS011;66384;51.052;9.850;2023-02-18T12:40:06;1.20;;;1.00;;
77322;SDS011;66384;51.052;9.850;2023-02-18T12:45:26;3.20;;;1.20;;
77322;SDS011;66384;51.052;9.850;2023-02-18T12:48:27;0.90;;;0.80;;
77322;SDS011;66384;51.052;9.850;2023-02-18T12:51:18;1.30;;;1.00;;
77322;SDS011;66384;51.052;9.850;2023-02-18T12:54:11;1.20;;;0.90;;
77322;SDS011;66384;51.052;9.850;2023-02-18T12:56:55;1.00;;;0.80;;
77322;SDS011;66384;51.052;9.850;2023-02-18T12:59:37;1.60;;;1.00;;
77322;SDS011;66384;51.052;9.850;2023-02-18T13:02:23;1.60;;;1.00;;
77322;SDS011;66384;51.052;9.850;2023-02-18T13:05:05;3.90;;;0.80;;
77322;SDS011;66384;51.052;9.850;2023-02-18T13:07:41;1.30;;;0.80;;
77322;SDS011;66384;51.052;9.850;2023-02-18T13:10:23;1.60;;;1.00;;
77322;SDS011;66384;51.052;9.850;2023-02-18T13:13:08;1.90;;;1.10;;
77322;SDS011;66384;51.052;9.850;2023-02-18T13:15:43;2.60;;;1.10;;
77322;SDS011;66384;51.052;9.850;2023-02-18T13:18:17;1.60;;;0.90;;
77322;SDS011;66384;51.052;9.850;2023-02-18T13:20:51;1.90;;;0.90;;
77322;SDS011;66384;51.052;9.850;2023-02-18T13:23:25;3.30;;;1.60;;
77322;SDS011;66384;51.052;9.850;2023-02-18T13:25:59;1.30;;;0.80;;
77322;SDS011;66384;51.052;9.850;2023-02-18T13:28:31;1.50;;;1.10;;
77322;SDS011;66384;51.052;9.850;2023-02-18T13:31:14;1.20;;;1.00;;
77322;SDS011;66384;51.052;9.850;2023-02-18T13:33:55;1.50;;;1.00;;
77322;SDS011;66384;51.052;9.850;2023-02-18T13:36:32;1.60;;;0.90;;
77322;SDS011;66384;51.052;9.850;2023-02-18T13:39:13;1.90;;;0.70;;
77322;SDS011;66384;51.052;9.850;2023-02-18T13:41:46;0.90;;;0.90;;
77322;SDS011;66384;51.052;9.850;2023-02-18T13:47:39;1.30;;;1.00;;
77322;SDS011;66384;51.052;9.850;2023-02-18T13:50:22;0.80;;;0.80;;
77322;SDS011;66384;51.052;9.850;2023-02-18T13:52:58;1.40;;;1.00;;
77322;SDS011;66384;51.052;9.850;2023-02-18T13:55:40;1.00;;;0.90;;
77322;SDS011;66384;51.052;9.850;2023-02-18T13:58:16;1.60;;;0.80;;
77322;SDS011;66384;51.052;9.850;2023-02-18T14:00:49;0.60;;;0.60;;
77322;SDS011;66384;51.052;9.850;2023-02-18T14:03:30;1.60;;;0.70;;
77322;SDS011;66384;51.052;9.850;2023-02-18T14:06:13;1.10;;;0.90;;
77322;SDS011;66384;51.052;9.850;2023-02-18T14:08:43;1.80;;;0.60;;
77322;SDS011;66384;51.052;9.850;2023-02-18T14:17:13;0.80;;;0.70;;
77322;SDS011;66384;51.052;9.850;2023-02-18T14:19:59;1.60;;;0.90;;
77322;SDS011;66384;51.052;9.850;2023-02-18T14:25:56;1.50;;;1.00;;
77322;SDS011;66384;51.052;9.850;2023-02-18T14:28:39;0.60;;;0.60;;
77322;SDS011;66384;51.052;9.850;2023-02-18T14:31:20;0.70;;;0.70;;
77322;SDS011;66384;51.052;9.850;2023-02-18T14:33:59;1.50;;;1.00;;
77322;SDS011;66384;51.052;9.850;2023-02-18T14:36:48;0.60;;;0.40;;
77322;SDS011;66384;51.052;9.850;2023-02-18T14:39:28;0.90;;;0.80;;
77322;SDS011;66384;51.052;9.850;2023-02-18T14:42:10;0.60;;;0.50;;
77322;SDS011;66384;51.052;9.850;2023-02-18T14:44:54;1.30;;;0.60;;
77322;SDS011;66384;51.052;9.850;2023-02-18T14:47:34;1.20;;;0.70;;
77322;SDS011;66384;51.052;9.850;2023-02-18T14:50:19;0.60;;;0.60;;
77322;SDS011;66384;51.052;9.850;2023-02-18T14:52:49;1.40;;;0.90;;
77322;SDS011;66384;51.052;9.850;2023-02-18T14:55:22;1.00;;;0.90;;
77322;SDS011;66384;51.052;9.850;2023-02-18T14:57:56;2.00;;;1.60;;
77322;SDS011;66384;51.052;9.850;2023-02-18T15:00:32;2.30;;;1.70;;
77322;SDS011;66384;51.052;9.850;2023-02-18T15:03:10;1.90;;;1.50;;
77322;SDS011;66384;51.052;9.850;2023-02-18T15:05:43;2.10;;;1.80;;
77322;SDS011;66384;51.052;9.850;2023-02-18T15:08:15;1.50;;;1.10;;
77322;SDS011;66384;51.052;9.850;2023-02-18T15:10:45;2.10;;;1.60;;
77322;SDS011;66384;51.052;9.850;2023-02-18T15:13:19;2.20;;;1.90;;
77322;SDS011;66384;51.052;9.850;2023-02-18T15:15:52;2.60;;;1.80;;
77322;SDS011;66384;51.052;9.850;2023-02-18T15:18:29;2.20;;;1.30;;
77322;SDS011;66384;51.052;9.850;2023-02-18T15:21:01;2.20;;;1.40;;
77322;SDS011;66384;51.052;9.850;2023-02-18T15:23:33;3.00;;;2.00;;
77322;SDS011;66384;51.052;9.850;2023-02-18T15:26:05;3.20;;;1.40;;
77322;SDS011;66384;51.052;9.850;2023-02-18T15:28:40;3.50;;;1.90;;
77322;SDS011;66384;51.052;9.850;2023-02-18T15:31:24;1.40;;;0.90;;
77322;SDS011;66384;51.052;9.850;2023-02-18T15:33:55;3.10;;;1.80;;
77322;SDS011;66384;51.052;9.850;2023-02-18T15:36:25;3.00;;;1.80;;
77322;SDS011;66384;51.052;9.850;2023-02-18T15:38:56;4.90;;;2.40;;
77322;SDS011;66384;51.052;9.850;2023-02-18T15:43:56;2.10;;;1.20;;
77322;SDS011;66384;51.052;9.850;2023-02-18T15:46:29;1.10;;;1.00;;
77322;SDS011;66384;51.052;9.850;2023-02-18T15:48:59;3.70;;;2.10;;
77322;SDS011;66384;51.052;9.850;2023-02-18T15:51:34;2.30;;;1.50;;
77322;SDS011;66384;51.052;9.850;2023-02-18T15:54:03;1.30;;;0.90;;
77322;SDS011;66384;51.052;9.850;2023-02-18T15:56:33;2.00;;;1.40;;
77322;SDS011;66384;51.052;9.850;2023-02-18T15:59:09;2.90;;;2.00;;
77322;SDS011;66384;51.052;9.850;2023-02-18T16:01:45;1.20;;;0.80;;
77322;SDS011;66384;51.052;9.850;2023-02-18T16:04:17;1.30;;;0.90;;
77322;SDS011;66384;51.052;9.850;2023-02-18T16:06:49;0.60;;;0.50;;